Airfield :
LOGIN :

Register | Disclaimer

   EN    FR    IT 

 










Legend :    VFR   Marginal VFR   IFR   Intensive IFR   Very Intensive IFR
Visi :
Ceiling :
>= 8 km
>= 3000ft
5 to 8 km
1000 to 3000 ft
1500m to 5 km
500 to 1000 ft
800 to 1500m
200 to 500 ft
< 800m
< 200 ft
Symbols :   Thunderstorms  Fog  Heavy snow  Heavy precipitations  Wind > 20 kt
SIGMETs :     Misc.  Thunderstorms  Icing  Turbulence  Mountain Waves  Volcanic Ashes






- Airport Elevation : 2731 ft
- IATA code : LPY


LFHP - Le Puy Loudes

CURRENT METAR :
  • 301430Z AUTO 06004KT 9999 OVC025 04/02 Q1017

EXPIRED METARs :
  • 301400Z AUTO 05007KT 020V080 9999 FEW018 OVC027 05/02 Q1017
  • 301330Z AUTO 05007KT 020V080 9999 OVC023 05/02 Q1017
  • 301300Z AUTO 04006KT 9999 FEW016 OVC023 05/02 Q1017
  • 301230Z AUTO 05005KT 020V080 9999 BKN018 OVC023 05/02 Q1017
  • 301200Z AUTO 07004KT 030V110 9999 BKN020 OVC026 05/02 Q1017

Expired Forecast.



MET'MAP, your aeronautical weather chart ! - Copyright ORBIFLY December 2007 - Disclaimer

ORBIFLY MET'MAP TEAM :

Programming & Development : Alexandra Zaïnal
Original concept : Baudouin d'Aumeries
Technical & hardware support : Manuel Goepfert
Assistance : Marc-Olivier Méhu




SOURCES & CREDITS :

   NOAA